createdAt,value
2018-11-28T00:02:51.962Z,4.10
2018-11-28T00:07:28.341Z,4.10
2018-11-28T00:12:04.730Z,4.20
2018-11-28T00:16:41.092Z,4.20
2018-11-28T00:21:17.466Z,4.10
2018-11-28T00:25:58.718Z,4.20
2018-11-28T00:30:31.114Z,4.20
2018-11-28T00:35:09.061Z,4.20
2018-11-28T00:39:45.445Z,4.10
2018-11-28T00:44:21.804Z,4.20
2018-11-28T00:48:58.206Z,4.20
2018-11-28T00:53:34.583Z,4.20
2018-11-28T00:58:10.973Z,4.30
2018-11-28T01:02:48.151Z,4.10
2018-11-28T01:07:24.522Z,4.00
2018-11-28T01:12:00.898Z,4.00
2018-11-28T01:16:37.301Z,3.90
2018-11-28T01:21:13.677Z,3.90
2018-11-28T01:25:50.061Z,4.00
2018-11-28T01:30:26.434Z,4.10
2018-11-28T01:35:02.840Z,4.10
2018-11-28T01:39:39.237Z,4.10
2018-11-28T01:44:15.637Z,4.10
2018-11-28T01:48:52.009Z,4.10
2018-11-28T01:53:28.389Z,4.20
2018-11-28T01:58:04.745Z,4.20
2018-11-28T02:02:41.636Z,4.30
2018-11-28T02:07:18.007Z,4.40
2018-11-28T02:11:54.416Z,4.30
2018-11-28T02:16:30.778Z,4.30
2018-11-28T02:21:07.627Z,4.20
2018-11-28T02:25:44.091Z,4.20
2018-11-28T02:30:21.341Z,4.20
2018-11-28T02:34:57.703Z,4.10
2018-11-28T02:39:34.084Z,4.00
2018-11-28T02:44:10.450Z,4.00
2018-11-28T02:48:46.834Z,3.80
2018-11-28T02:53:23.194Z,3.70
2018-11-28T02:57:59.575Z,3.60
2018-11-28T03:02:36.081Z,3.60
2018-11-28T03:07:12.462Z,3.60
2018-11-28T03:11:48.826Z,3.60
2018-11-28T03:16:25.210Z,3.50
2018-11-28T03:21:01.574Z,3.40
2018-11-28T03:25:37.973Z,3.60
2018-11-28T03:30:15.779Z,3.50
2018-11-28T03:34:52.242Z,3.40
2018-11-28T03:39:28.605Z,3.10
2018-11-28T03:44:05.005Z,2.90
2018-11-28T03:48:41.381Z,2.80
2018-11-28T03:53:17.771Z,2.90
2018-11-28T03:57:54.144Z,2.90
2018-11-28T04:02:30.600Z,3.10
2018-11-28T04:07:07.074Z,3.00
2018-11-28T04:11:43.467Z,3.00
2018-11-28T04:16:19.831Z,3.00
2018-11-28T04:20:56.218Z,3.00
2018-11-28T04:25:32.578Z,3.10
2018-11-28T04:30:18.883Z,3.10
2018-11-28T04:34:55.234Z,3.00
2018-11-28T04:39:31.647Z,3.00
2018-11-28T04:44:08.022Z,2.90
2018-11-28T04:48:44.466Z,3.00
2018-11-28T04:53:20.826Z,2.90
2018-11-28T04:57:57.208Z,2.90
2018-11-28T05:02:33.558Z,3.10
2018-11-28T05:07:32.094Z,3.20
2018-11-28T05:12:08.460Z,3.10
2018-11-28T05:16:44.935Z,3.20
2018-11-28T05:21:21.300Z,3.20
2018-11-28T05:25:57.685Z,3.20
2018-11-28T05:30:35.686Z,3.30
2018-11-28T05:35:13.601Z,3.20
2018-11-28T05:39:50.009Z,3.30
2018-11-28T05:44:26.402Z,3.30
2018-11-28T05:49:02.762Z,3.20
2018-11-28T05:53:39.295Z,3.20
2018-11-28T05:58:15.759Z,3.20
2018-11-28T06:02:52.145Z,3.10
2018-11-28T06:07:28.512Z,3.10
2018-11-28T06:12:04.917Z,3.10
2018-11-28T06:16:41.286Z,3.10
2018-11-28T06:21:17.671Z,3.20
2018-11-28T06:25:54.043Z,3.20
2018-11-28T06:30:30.432Z,3.20
2018-11-28T06:35:08.013Z,3.20
2018-11-28T06:39:44.401Z,3.30
2018-11-28T06:44:20.766Z,3.40
2018-11-28T06:48:57.161Z,3.50
2018-11-28T06:53:33.530Z,3.60
2018-11-28T06:58:09.930Z,3.40
2018-11-28T07:02:46.688Z,3.40
2018-11-28T07:07:23.065Z,3.40
2018-11-28T07:11:59.429Z,3.40
2018-11-28T07:16:35.825Z,3.30
2018-11-28T07:21:12.422Z,3.30
2018-11-28T07:25:48.806Z,3.30
2018-11-28T07:30:25.192Z,3.20
2018-11-28T07:35:01.566Z,3.30
2018-11-28T07:39:37.975Z,3.30
2018-11-28T07:44:14.423Z,3.40
2018-11-28T07:48:50.781Z,3.30
2018-11-28T07:53:27.161Z,3.30
2018-11-28T07:58:03.520Z,3.30
2018-11-28T08:02:40.342Z,3.40
2018-11-28T08:07:16.725Z,3.50
2018-11-28T08:11:53.129Z,3.50
2018-11-28T08:16:29.482Z,3.70
2018-11-28T08:21:06.698Z,3.70
2018-11-28T08:25:43.058Z,3.80
2018-11-28T08:30:26.638Z,3.90
2018-11-28T08:35:03.014Z,4.00
2018-11-28T08:39:39.399Z,4.10
2018-11-28T08:44:15.794Z,4.20
2018-11-28T08:48:52.185Z,4.20
2018-11-28T08:53:28.633Z,4.30
2018-11-28T08:58:05.061Z,4.30
2018-11-28T09:02:41.458Z,4.40
2018-11-28T09:07:17.851Z,4.50
2018-11-28T09:11:54.220Z,4.50
2018-11-28T09:16:30.893Z,4.40
2018-11-28T09:21:07.792Z,4.50
2018-11-28T09:25:45.162Z,4.50
2018-11-28T09:30:22.189Z,4.60
2018-11-28T09:34:58.586Z,4.60
2018-11-28T09:39:34.959Z,4.80
2018-11-28T09:44:11.342Z,4.90
2018-11-28T09:48:47.716Z,5.00
2018-11-28T09:53:24.092Z,4.90
2018-11-28T09:58:00.880Z,5.00
2018-11-28T10:02:37.266Z,5.10
2018-11-28T10:07:13.626Z,5.20
2018-11-28T10:11:50.006Z,5.30
2018-11-28T10:16:26.372Z,5.50
2018-11-28T10:21:02.837Z,5.60
2018-11-28T10:25:39.194Z,5.70
2018-11-28T10:30:26.092Z,5.80
2018-11-28T10:35:02.454Z,5.90
2018-11-28T10:39:38.888Z,6.00
2018-11-28T10:44:15.295Z,6.10
2018-11-28T10:48:51.685Z,6.10
2018-11-28T10:53:28.232Z,6.10
2018-11-28T10:58:04.605Z,6.20
2018-11-28T11:02:58.277Z,6.30
2018-11-28T11:07:51.685Z,6.40
2018-11-28T11:12:45.182Z,6.50
2018-11-28T11:17:21.571Z,6.70
2018-11-28T11:21:57.934Z,6.70
2018-11-28T11:26:34.321Z,6.80
2018-11-28T11:31:10.913Z,6.70
2018-11-28T11:35:47.383Z,6.90
2018-11-28T11:40:23.754Z,7.00
2018-11-28T11:45:00.544Z,7.00
2018-11-28T11:49:36.982Z,7.00
2018-11-28T11:54:13.378Z,7.00
2018-11-28T11:58:49.739Z,7.00
2018-11-28T12:03:26.326Z,7.10
2018-11-28T12:08:02.698Z,7.10
2018-11-28T12:12:39.081Z,7.20
2018-11-28T12:17:15.437Z,7.30
2018-11-28T12:21:51.810Z,7.40
2018-11-28T12:26:28.182Z,7.40
2018-11-28T12:31:04.567Z,7.40
2018-11-28T12:35:40.913Z,7.50
2018-11-28T12:40:18.184Z,7.60
2018-11-28T12:44:54.576Z,7.60
2018-11-28T12:49:30.943Z,7.60
2018-11-28T12:54:07.302Z,7.60
2018-11-28T12:58:43.710Z,7.70
2018-11-28T13:03:20.757Z,7.90
2018-11-28T13:07:57.169Z,8.00
2018-11-28T13:12:33.534Z,8.00
2018-11-28T13:17:10.552Z,8.10
2018-11-28T13:21:46.926Z,8.10
2018-11-28T13:26:23.377Z,8.10
2018-11-28T13:30:59.737Z,8.10
2018-11-28T13:35:36.130Z,8.10
2018-11-28T13:40:16.583Z,8.10
2018-11-28T13:44:53.035Z,8.20
2018-11-28T13:49:29.414Z,8.20
2018-11-28T13:54:20.943Z,8.20
2018-11-28T13:58:43.067Z,8.20
2018-11-28T14:03:19.447Z,8.10
2018-11-28T14:07:55.814Z,8.20
2018-11-28T14:12:32.201Z,8.20
2018-11-28T14:17:08.565Z,8.20
2018-11-28T14:21:44.957Z,8.20
2018-11-28T14:26:21.364Z,8.20
2018-11-28T14:30:57.776Z,8.10
2018-11-28T14:35:34.593Z,8.20
2018-11-28T14:40:21.321Z,8.20
2018-11-28T14:44:58.130Z,8.20
2018-11-28T14:49:34.608Z,8.10
2018-11-28T14:54:10.970Z,8.00
2018-11-28T14:58:47.370Z,7.80
2018-11-28T15:03:23.731Z,7.70
2018-11-28T15:08:06.183Z,7.70
2018-11-28T15:12:42.581Z,7.70
2018-11-28T15:17:18.966Z,7.50
2018-11-28T15:21:55.331Z,7.50
2018-11-28T15:26:31.730Z,7.30
2018-11-28T15:31:08.397Z,7.20
2018-11-28T15:35:44.806Z,7.10
2018-11-28T15:40:21.175Z,7.10
2018-11-28T15:44:57.557Z,7.00
2018-11-28T15:49:33.947Z,6.80
2018-11-28T15:54:10.337Z,6.60
2018-11-28T15:58:46.707Z,6.50
2018-11-28T16:03:24.144Z,6.40
2018-11-28T16:08:00.498Z,6.40
2018-11-28T16:12:36.964Z,6.30
2018-11-28T16:17:13.326Z,6.30
2018-11-28T16:21:49.719Z,6.20
2018-11-28T16:26:26.089Z,6.10
2018-11-28T16:31:02.626Z,6.00
2018-11-28T16:35:39.616Z,6.00
2018-11-28T16:40:16.906Z,5.90
2018-11-28T16:44:53.318Z,5.80
2018-11-28T16:49:29.697Z,5.60
2018-11-28T16:54:06.688Z,5.50
2018-11-28T16:58:43.090Z,5.40
2018-11-28T17:03:19.453Z,5.40
2018-11-28T17:07:56.266Z,5.30
2018-11-28T17:12:32.641Z,5.30
2018-11-28T17:17:09.025Z,5.30
2018-11-28T17:21:45.395Z,5.20
2018-11-28T17:26:21.769Z,5.10
2018-11-28T17:30:58.970Z,5.10
2018-11-28T17:35:35.373Z,5.00
2018-11-28T17:40:19.851Z,5.00
2018-11-28T17:44:56.346Z,4.90
2018-11-28T17:49:32.777Z,4.90
2018-11-28T17:54:09.291Z,4.90
2018-11-28T17:58:45.695Z,4.90
2018-11-28T18:03:22.885Z,4.80
2018-11-28T18:07:59.365Z,4.80
2018-11-28T18:12:35.774Z,4.80
2018-11-28T18:17:12.157Z,4.80
2018-11-28T18:21:50.345Z,4.60
2018-11-28T18:26:26.714Z,4.70
2018-11-28T18:31:03.146Z,4.90
2018-11-28T18:35:39.560Z,4.90
2018-11-28T18:40:16.006Z,5.10
2018-11-28T18:44:52.374Z,5.20
2018-11-28T18:49:28.780Z,5.30
2018-11-28T18:54:05.136Z,5.40
2018-11-28T18:58:41.535Z,5.50
2018-11-28T19:03:17.901Z,5.50
2018-11-28T19:07:54.290Z,5.60
2018-11-28T19:12:31.287Z,5.60
2018-11-28T19:17:08.006Z,5.50
2018-11-28T19:21:53.690Z,5.60
2018-11-28T19:26:30.118Z,5.50
2018-11-28T19:31:06.886Z,5.50
2018-11-28T19:35:43.530Z,5.50
2018-11-28T19:40:43.266Z,5.40
2018-11-28T19:45:19.674Z,5.50
2018-11-28T19:49:56.096Z,5.50
2018-11-28T19:54:32.712Z,5.40
2018-11-28T19:59:09.156Z,5.40
2018-11-28T20:03:45.559Z,5.40
2018-11-28T20:08:22.040Z,5.50
2018-11-28T20:12:58.814Z,5.60
2018-11-28T20:17:35.161Z,5.60
2018-11-28T20:22:11.546Z,5.50
2018-11-28T20:26:47.916Z,5.60
2018-11-28T20:31:24.347Z,5.50
2018-11-28T20:36:00.713Z,5.50
2018-11-28T20:40:37.748Z,5.50
2018-11-28T20:45:14.441Z,5.50
2018-11-28T20:49:52.862Z,5.40
2018-11-28T20:54:29.226Z,5.40
2018-11-28T20:59:06.274Z,5.50
2018-11-28T21:03:42.633Z,5.50
2018-11-28T21:13:04.539Z,5.60
2018-11-28T21:22:19.670Z,5.70
2018-11-28T21:26:56.975Z,5.80
2018-11-28T21:31:33.666Z,5.80
2018-11-28T21:36:10.095Z,6.00
2018-11-28T21:40:46.822Z,6.00
2018-11-28T21:45:24.099Z,6.00
2018-11-28T21:50:00.738Z,6.00
2018-11-28T21:54:42.366Z,5.90
2018-11-28T21:59:21.295Z,5.90
2018-11-28T22:04:00.636Z,5.90
2018-11-28T22:08:37.021Z,5.90
2018-11-28T22:13:13.378Z,5.90
2018-11-28T22:17:54.193Z,5.90
2018-11-28T22:22:30.569Z,6.00
2018-11-28T22:27:07.373Z,6.10
2018-11-28T22:31:43.737Z,6.10
2018-11-28T22:36:20.118Z,6.10
2018-11-28T22:40:56.626Z,6.20
2018-11-28T22:45:36.561Z,6.40
2018-11-28T22:50:13.874Z,6.20
2018-11-28T22:54:50.310Z,6.20
2018-11-28T22:59:26.667Z,6.00
2018-11-28T23:04:03.053Z,6.10
2018-11-28T23:08:39.406Z,6.10
2018-11-28T23:13:34.713Z,6.10
2018-11-28T23:18:12.177Z,6.20
2018-11-28T23:22:48.566Z,6.20
2018-11-28T23:27:25.003Z,6.30
2018-11-28T23:32:01.382Z,6.30
2018-11-28T23:36:37.747Z,6.30
2018-11-28T23:41:14.139Z,6.40
2018-11-28T23:45:51.492Z,6.40
2018-11-28T23:50:28.196Z,6.40
2018-11-28T23:55:04.954Z,6.40
2018-11-28T23:59:41.329Z,6.50
